sensor_id;sensor_type;location;lat;lon;timestamp;temperature;humidity
8820;DHT22;4446;50.876;4.736;2022-10-16T00:01:09;12.50;99.90
8820;DHT22;4446;50.876;4.736;2022-10-16T00:03:37;12.50;99.90
8820;DHT22;4446;50.876;4.736;2022-10-16T00:06:06;12.60;99.90
8820;DHT22;4446;50.876;4.736;2022-10-16T00:08:33;12.60;99.90
8820;DHT22;4446;50.876;4.736;2022-10-16T00:11:03;12.50;99.90
8820;DHT22;4446;50.876;4.736;2022-10-16T00:13:31;12.50;99.90
8820;DHT22;4446;50.876;4.736;2022-10-16T00:15:59;12.50;99.90
8820;DHT22;4446;50.876;4.736;2022-10-16T00:18:26;12.50;99.90
8820;DHT22;4446;50.876;4.736;2022-10-16T00:20:54;12.50;99.90
8820;DHT22;4446;50.876;4.736;2022-10-16T00:23:23;12.50;99.90
8820;DHT22;4446;50.876;4.736;2022-10-16T00:25:57;12.50;99.90
8820;DHT22;4446;50.876;4.736;2022-10-16T00:28:25;12.50;99.90
8820;DHT22;4446;50.876;4.736;2022-10-16T00:30:53;12.60;99.90
8820;DHT22;4446;50.876;4.736;2022-10-16T00:33:20;12.50;99.90
8820;DHT22;4446;50.876;4.736;2022-10-16T00:35:47;12.60;99.90
8820;DHT22;4446;50.876;4.736;2022-10-16T00:38:15;12.60;99.90
8820;DHT22;4446;50.876;4.736;2022-10-16T00:40:43;12.60;99.90
8820;DHT22;4446;50.876;4.736;2022-10-16T00:45:56;12.60;99.90
8820;DHT22;4446;50.876;4.736;2022-10-16T00:48:23;12.50;99.90
8820;DHT22;4446;50.876;4.736;2022-10-16T00:50:51;12.50;99.90
8820;DHT22;4446;50.876;4.736;2022-10-16T00:53:19;12.50;99.90
8820;DHT22;4446;50.876;4.736;2022-10-16T00:55:47;12.50;99.90
8820;DHT22;4446;50.876;4.736;2022-10-16T00:58:14;12.40;99.90
8820;DHT22;4446;50.876;4.736;2022-10-16T01:00:42;12.40;99.90
8820;DHT22;4446;50.876;4.736;2022-10-16T01:03:23;12.40;99.90
8820;DHT22;4446;50.876;4.736;2022-10-16T01:05:58;12.40;99.90
8820;DHT22;4446;50.876;4.736;2022-10-16T01:08:32;12.20;99.90
8820;DHT22;4446;50.876;4.736;2022-10-16T01:11:07;12.30;99.90
8820;DHT22;4446;50.876;4.736;2022-10-16T01:13:41;12.30;99.90
8820;DHT22;4446;50.876;4.736;2022-10-16T01:16:13;12.30;99.90
8820;DHT22;4446;50.876;4.736;2022-10-16T01:18:44;12.30;99.90
8820;DHT22;4446;50.876;4.736;2022-10-16T01:21:16;12.40;99.90
8820;DHT22;4446;50.876;4.736;2022-10-16T01:23:56;12.40;99.90
8820;DHT22;4446;50.876;4.736;2022-10-16T01:26:38;12.40;99.90
8820;DHT22;4446;50.876;4.736;2022-10-16T01:29:16;12.30;99.90
8820;DHT22;4446;50.876;4.736;2022-10-16T01:31:48;12.30;99.90
8820;DHT22;4446;50.876;4.736;2022-10-16T01:34:20;12.40;99.90
8820;DHT22;4446;50.876;4.736;2022-10-16T01:36:51;12.50;99.90
8820;DHT22;4446;50.876;4.736;2022-10-16T01:39:22;12.40;99.90
8820;DHT22;4446;50.876;4.736;2022-10-16T01:41:57;12.40;99.90
8820;DHT22;4446;50.876;4.736;2022-10-16T01:44:30;12.40;99.90
8820;DHT22;4446;50.876;4.736;2022-10-16T01:46:58;12.30;99.90
8820;DHT22;4446;50.876;4.736;2022-10-16T01:49:31;12.30;99.90
8820;DHT22;4446;50.876;4.736;2022-10-16T01:52:00;12.40;99.90
8820;DHT22;4446;50.876;4.736;2022-10-16T01:54:31;12.40;99.90
8820;DHT22;4446;50.876;4.736;2022-10-16T01:57:00;12.30;99.90
8820;DHT22;4446;50.876;4.736;2022-10-16T01:59:31;12.20;99.90
8820;DHT22;4446;50.876;4.736;2022-10-16T02:02:00;12.20;99.90
8820;DHT22;4446;50.876;4.736;2022-10-16T02:04:31;12.20;99.90
8820;DHT22;4446;50.876;4.736;2022-10-16T02:06:59;12.30;99.90
8820;DHT22;4446;50.876;4.736;2022-10-16T02:09:26;12.40;99.90
8820;DHT22;4446;50.876;4.736;2022-10-16T02:11:55;12.30;99.90
8820;DHT22;4446;50.876;4.736;2022-10-16T02:14:24;12.30;99.90
8820;DHT22;4446;50.876;4.736;2022-10-16T02:16:52;12.30;99.90
8820;DHT22;4446;50.876;4.736;2022-10-16T02:19:19;12.20;99.90
8820;DHT22;4446;50.876;4.736;2022-10-16T02:21:50;12.20;99.90
8820;DHT22;4446;50.876;4.736;2022-10-16T02:24:26;12.20;99.90
8820;DHT22;4446;50.876;4.736;2022-10-16T02:27:02;12.30;99.90
8820;DHT22;4446;50.876;4.736;2022-10-16T02:29:30;12.30;99.90
8820;DHT22;4446;50.876;4.736;2022-10-16T02:32:02;12.20;99.90
8820;DHT22;4446;50.876;4.736;2022-10-16T02:34:32;12.20;99.90
8820;DHT22;4446;50.876;4.736;2022-10-16T02:37:01;12.20;99.90
8820;DHT22;4446;50.876;4.736;2022-10-16T02:39:29;12.30;99.90
8820;DHT22;4446;50.876;4.736;2022-10-16T02:41:56;12.30;99.90
8820;DHT22;4446;50.876;4.736;2022-10-16T02:44:23;12.30;99.90
8820;DHT22;4446;50.876;4.736;2022-10-16T02:46:50;12.30;99.90
8820;DHT22;4446;50.876;4.736;2022-10-16T02:49:19;12.20;99.90
8820;DHT22;4446;50.876;4.736;2022-10-16T02:51:46;12.10;99.90
8820;DHT22;4446;50.876;4.736;2022-10-16T02:54:13;12.10;99.90
8820;DHT22;4446;50.876;4.736;2022-10-16T02:56:39;12.10;99.90
8820;DHT22;4446;50.876;4.736;2022-10-16T02:59:06;12.10;99.90
8820;DHT22;4446;50.876;4.736;2022-10-16T03:01:34;12.00;99.90
8820;DHT22;4446;50.876;4.736;2022-10-16T03:04:01;12.10;99.90
8820;DHT22;4446;50.876;4.736;2022-10-16T03:06:29;12.00;99.90
8820;DHT22;4446;50.876;4.736;2022-10-16T03:08:56;12.10;99.90
8820;DHT22;4446;50.876;4.736;2022-10-16T03:11:23;12.10;99.90
8820;DHT22;4446;50.876;4.736;2022-10-16T03:13:50;12.10;99.90
8820;DHT22;4446;50.876;4.736;2022-10-16T03:16:17;12.20;99.90
8820;DHT22;4446;50.876;4.736;2022-10-16T03:18:48;12.20;99.90
8820;DHT22;4446;50.876;4.736;2022-10-16T03:21:16;12.20;99.90
8820;DHT22;4446;50.876;4.736;2022-10-16T03:23:44;12.20;99.90
8820;DHT22;4446;50.876;4.736;2022-10-16T03:26:12;12.30;99.90
8820;DHT22;4446;50.876;4.736;2022-10-16T03:28:39;12.30;99.90
8820;DHT22;4446;50.876;4.736;2022-10-16T03:31:06;12.30;99.90
8820;DHT22;4446;50.876;4.736;2022-10-16T03:33:33;12.40;99.90
8820;DHT22;4446;50.876;4.736;2022-10-16T03:36:00;12.40;99.90
8820;DHT22;4446;50.876;4.736;2022-10-16T03:38:27;12.30;99.90
8820;DHT22;4446;50.876;4.736;2022-10-16T03:40:56;12.40;99.90
8820;DHT22;4446;50.876;4.736;2022-10-16T03:43:23;12.30;99.90
8820;DHT22;4446;50.876;4.736;2022-10-16T03:45:50;12.30;99.90
8820;DHT22;4446;50.876;4.736;2022-10-16T03:48:17;12.20;99.90
8820;DHT22;4446;50.876;4.736;2022-10-16T03:50:44;12.30;99.90
8820;DHT22;4446;50.876;4.736;2022-10-16T03:53:11;12.30;99.90
8820;DHT22;4446;50.876;4.736;2022-10-16T03:55:38;12.30;99.90
8820;DHT22;4446;50.876;4.736;2022-10-16T03:58:08;12.20;99.90
8820;DHT22;4446;50.876;4.736;2022-10-16T04:00:35;12.20;99.90
8820;DHT22;4446;50.876;4.736;2022-10-16T04:03:03;12.20;99.90
8820;DHT22;4446;50.876;4.736;2022-10-16T04:05:30;12.20;99.90
8820;DHT22;4446;50.876;4.736;2022-10-16T04:07:57;12.10;99.90
8820;DHT22;4446;50.876;4.736;2022-10-16T04:10:23;12.10;99.90
8820;DHT22;4446;50.876;4.736;2022-10-16T04:12:51;12.10;99.90
8820;DHT22;4446;50.876;4.736;2022-10-16T04:15:21;12.20;99.90
8820;DHT22;4446;50.876;4.736;2022-10-16T04:17:50;12.20;99.90
8820;DHT22;4446;50.876;4.736;2022-10-16T04:20:17;12.20;99.90
8820;DHT22;4446;50.876;4.736;2022-10-16T04:22:44;12.20;99.90
8820;DHT22;4446;50.876;4.736;2022-10-16T04:25:11;12.20;99.90
8820;DHT22;4446;50.876;4.736;2022-10-16T04:27:39;12.10;99.90
8820;DHT22;4446;50.876;4.736;2022-10-16T04:30:07;12.10;99.90
8820;DHT22;4446;50.876;4.736;2022-10-16T04:32:35;12.10;99.90
8820;DHT22;4446;50.876;4.736;2022-10-16T04:35:02;12.10;99.90
8820;DHT22;4446;50.876;4.736;2022-10-16T04:37:29;12.00;99.90
8820;DHT22;4446;50.876;4.736;2022-10-16T04:39:56;11.90;99.90
8820;DHT22;4446;50.876;4.736;2022-10-16T04:42:23;11.80;99.90
8820;DHT22;4446;50.876;4.736;2022-10-16T04:44:51;11.80;99.90
8820;DHT22;4446;50.876;4.736;2022-10-16T04:47:18;11.80;99.90
8820;DHT22;4446;50.876;4.736;2022-10-16T04:49:46;11.80;99.90
8820;DHT22;4446;50.876;4.736;2022-10-16T04:52:13;11.90;99.90
8820;DHT22;4446;50.876;4.736;2022-10-16T04:54:40;11.80;99.90
8820;DHT22;4446;50.876;4.736;2022-10-16T04:57:07;11.70;99.90
8820;DHT22;4446;50.876;4.736;2022-10-16T04:59:35;11.70;99.90
8820;DHT22;4446;50.876;4.736;2022-10-16T05:02:02;11.70;99.90
8820;DHT22;4446;50.876;4.736;2022-10-16T05:04:29;11.80;99.90
8820;DHT22;4446;50.876;4.736;2022-10-16T05:06:57;11.80;99.90
8820;DHT22;4446;50.876;4.736;2022-10-16T05:09:24;11.80;99.90
8820;DHT22;4446;50.876;4.736;2022-10-16T05:11:51;11.90;99.90
8820;DHT22;4446;50.876;4.736;2022-10-16T05:14:18;11.90;99.90
8820;DHT22;4446;50.876;4.736;2022-10-16T05:16:45;11.80;99.90
8820;DHT22;4446;50.876;4.736;2022-10-16T05:19:13;11.80;99.90
8820;DHT22;4446;50.876;4.736;2022-10-16T05:21:41;11.90;99.90
8820;DHT22;4446;50.876;4.736;2022-10-16T05:24:09;11.90;99.90
8820;DHT22;4446;50.876;4.736;2022-10-16T05:26:36;11.80;99.90
8820;DHT22;4446;50.876;4.736;2022-10-16T05:29:03;11.90;99.90
8820;DHT22;4446;50.876;4.736;2022-10-16T05:31:30;12.10;99.90
8820;DHT22;4446;50.876;4.736;2022-10-16T05:33:58;12.00;99.90
8820;DHT22;4446;50.876;4.736;2022-10-16T05:36:26;11.90;99.90
8820;DHT22;4446;50.876;4.736;2022-10-16T05:38:53;11.90;99.90
8820;DHT22;4446;50.876;4.736;2022-10-16T05:41:21;11.90;99.90
8820;DHT22;4446;50.876;4.736;2022-10-16T05:43:51;11.90;99.90
8820;DHT22;4446;50.876;4.736;2022-10-16T05:46:18;11.90;99.90
8820;DHT22;4446;50.876;4.736;2022-10-16T05:48:45;11.90;99.90
8820;DHT22;4446;50.876;4.736;2022-10-16T05:51:14;11.90;99.90
8820;DHT22;4446;50.876;4.736;2022-10-16T05:53:41;11.80;99.90
8820;DHT22;4446;50.876;4.736;2022-10-16T05:56:10;11.80;99.90
8820;DHT22;4446;50.876;4.736;2022-10-16T05:58:40;11.80;99.90
8820;DHT22;4446;50.876;4.736;2022-10-16T06:01:09;11.80;99.90
8820;DHT22;4446;50.876;4.736;2022-10-16T06:03:37;11.80;99.90
8820;DHT22;4446;50.876;4.736;2022-10-16T06:06:08;11.80;99.90
8820;DHT22;4446;50.876;4.736;2022-10-16T06:08:36;11.80;99.90
8820;DHT22;4446;50.876;4.736;2022-10-16T06:11:04;11.70;99.90
8820;DHT22;4446;50.876;4.736;2022-10-16T06:13:31;11.70;99.90
8820;DHT22;4446;50.876;4.736;2022-10-16T06:16:00;11.80;99.90
8820;DHT22;4446;50.876;4.736;2022-10-16T06:18:28;11.80;99.90
8820;DHT22;4446;50.876;4.736;2022-10-16T06:20:56;11.90;99.90
8820;DHT22;4446;50.876;4.736;2022-10-16T06:23:24;11.90;99.90
8820;DHT22;4446;50.876;4.736;2022-10-16T06:25:51;11.80;99.90
8820;DHT22;4446;50.876;4.736;2022-10-16T06:28:18;11.80;99.90
8820;DHT22;4446;50.876;4.736;2022-10-16T06:30:45;11.80;99.90
8820;DHT22;4446;50.876;4.736;2022-10-16T06:33:14;11.90;99.90
8820;DHT22;4446;50.876;4.736;2022-10-16T06:35:41;11.90;99.90
8820;DHT22;4446;50.876;4.736;2022-10-16T06:38:08;11.90;99.90
8820;DHT22;4446;50.876;4.736;2022-10-16T06:40:35;11.90;99.90
8820;DHT22;4446;50.876;4.736;2022-10-16T06:43:02;11.90;99.90
8820;DHT22;4446;50.876;4.736;2022-10-16T06:45:29;11.90;99.90
8820;DHT22;4446;50.876;4.736;2022-10-16T06:47:56;11.90;99.90
8820;DHT22;4446;50.876;4.736;2022-10-16T06:50:26;11.90;99.90
8820;DHT22;4446;50.876;4.736;2022-10-16T06:52:53;11.90;99.90
8820;DHT22;4446;50.876;4.736;2022-10-16T06:55:20;12.00;99.90
8820;DHT22;4446;50.876;4.736;2022-10-16T06:57:47;12.10;99.90
8820;DHT22;4446;50.876;4.736;2022-10-16T07:00:15;12.10;99.90
8820;DHT22;4446;50.876;4.736;2022-10-16T07:02:42;12.00;99.90
8820;DHT22;4446;50.876;4.736;2022-10-16T07:05:09;12.00;99.90
8820;DHT22;4446;50.876;4.736;2022-10-16T07:07:38;12.10;99.90
8820;DHT22;4446;50.876;4.736;2022-10-16T07:10:05;12.20;99.90
8820;DHT22;4446;50.876;4.736;2022-10-16T07:12:32;12.30;99.90
8820;DHT22;4446;50.876;4.736;2022-10-16T07:14:59;12.40;99.90
8820;DHT22;4446;50.876;4.736;2022-10-16T07:17:27;12.50;99.90
8820;DHT22;4446;50.876;4.736;2022-10-16T07:19:54;12.60;99.90
8820;DHT22;4446;50.876;4.736;2022-10-16T07:22:21;12.60;99.90
8820;DHT22;4446;50.876;4.736;2022-10-16T07:24:49;12.70;99.90
8820;DHT22;4446;50.876;4.736;2022-10-16T07:27:17;12.80;99.90
8820;DHT22;4446;50.876;4.736;2022-10-16T07:29:44;12.90;99.90
8820;DHT22;4446;50.876;4.736;2022-10-16T07:32:11;12.90;99.90
8820;DHT22;4446;50.876;4.736;2022-10-16T07:34:38;12.90;99.90
8820;DHT22;4446;50.876;4.736;2022-10-16T07:37:05;13.00;99.90
8820;DHT22;4446;50.876;4.736;2022-10-16T07:39:32;13.00;99.90
8820;DHT22;4446;50.876;4.736;2022-10-16T07:42:00;13.10;99.90
8820;DHT22;4446;50.876;4.736;2022-10-16T07:44:27;13.10;99.90
8820;DHT22;4446;50.876;4.736;2022-10-16T07:46:54;13.10;99.90
8820;DHT22;4446;50.876;4.736;2022-10-16T07:49:21;13.20;99.90
8820;DHT22;4446;50.876;4.736;2022-10-16T07:51:49;13.30;99.90
8820;DHT22;4446;50.876;4.736;2022-10-16T07:54:16;13.40;99.90
8820;DHT22;4446;50.876;4.736;2022-10-16T07:56:42;13.40;99.90
8820;DHT22;4446;50.876;4.736;2022-10-16T07:59:11;13.50;99.90
8820;DHT22;4446;50.876;4.736;2022-10-16T08:01:38;13.50;99.90
8820;DHT22;4446;50.876;4.736;2022-10-16T08:04:05;13.60;99.90
8820;DHT22;4446;50.876;4.736;2022-10-16T08:06:35;13.60;99.90
8820;DHT22;4446;50.876;4.736;2022-10-16T08:09:02;13.70;99.90
8820;DHT22;4446;50.876;4.736;2022-10-16T08:11:30;13.80;99.90
8820;DHT22;4446;50.876;4.736;2022-10-16T08:13:57;13.80;99.90
8820;DHT22;4446;50.876;4.736;2022-10-16T08:16:25;13.80;99.90
8820;DHT22;4446;50.876;4.736;2022-10-16T08:18:52;13.90;99.90
8820;DHT22;4446;50.876;4.736;2022-10-16T08:21:21;13.90;99.90
8820;DHT22;4446;50.876;4.736;2022-10-16T08:23:50;14.00;99.90
8820;DHT22;4446;50.876;4.736;2022-10-16T08:26:17;14.10;99.90
8820;DHT22;4446;50.876;4.736;2022-10-16T08:28:45;14.20;99.90
8820;DHT22;4446;50.876;4.736;2022-10-16T08:31:13;14.20;99.90
8820;DHT22;4446;50.876;4.736;2022-10-16T08:33:44;14.30;99.90
8820;DHT22;4446;50.876;4.736;2022-10-16T08:36:13;14.30;99.90
8820;DHT22;4446;50.876;4.736;2022-10-16T08:38:40;14.40;99.90
8820;DHT22;4446;50.876;4.736;2022-10-16T08:41:36;14.40;99.90
8820;DHT22;4446;50.876;4.736;2022-10-16T08:44:24;14.60;99.90
8820;DHT22;4446;50.876;4.736;2022-10-16T08:47:04;14.60;99.90
8820;DHT22;4446;50.876;4.736;2022-10-16T08:49:37;14.70;99.90
8820;DHT22;4446;50.876;4.736;2022-10-16T08:52:06;14.80;99.90
8820;DHT22;4446;50.876;4.736;2022-10-16T08:54:41;14.90;99.90
8820;DHT22;4446;50.876;4.736;2022-10-16T08:57:12;14.90;99.90
8820;DHT22;4446;50.876;4.736;2022-10-16T08:59:40;15.00;99.90
8820;DHT22;4446;50.876;4.736;2022-10-16T09:02:22;15.10;99.90
8820;DHT22;4446;50.876;4.736;2022-10-16T09:07:46;15.20;99.90
8820;DHT22;4446;50.876;4.736;2022-10-16T09:10:27;15.30;99.90
8820;DHT22;4446;50.876;4.736;2022-10-16T09:13:06;15.30;99.90
8820;DHT22;4446;50.876;4.736;2022-10-16T09:15:40;15.40;99.90
8820;DHT22;4446;50.876;4.736;2022-10-16T09:18:15;15.50;99.90
8820;DHT22;4446;50.876;4.736;2022-10-16T09:20:50;15.50;99.90
8820;DHT22;4446;50.876;4.736;2022-10-16T09:23:19;15.60;99.90
8820;DHT22;4446;50.876;4.736;2022-10-16T09:25:49;15.70;99.90
8820;DHT22;4446;50.876;4.736;2022-10-16T09:28:17;15.70;99.90
8820;DHT22;4446;50.876;4.736;2022-10-16T09:30:45;15.80;99.90
8820;DHT22;4446;50.876;4.736;2022-10-16T09:33:15;15.90;99.90
8820;DHT22;4446;50.876;4.736;2022-10-16T09:35:44;16.00;99.90
8820;DHT22;4446;50.876;4.736;2022-10-16T09:38:24;16.10;99.90
8820;DHT22;4446;50.876;4.736;2022-10-16T09:40:52;16.20;99.90
8820;DHT22;4446;50.876;4.736;2022-10-16T09:43:22;16.20;99.90
8820;DHT22;4446;50.876;4.736;2022-10-16T09:45:55;16.30;99.90
8820;DHT22;4446;50.876;4.736;2022-10-16T09:48:26;16.40;99.90
8820;DHT22;4446;50.876;4.736;2022-10-16T09:50:56;16.50;99.90
8820;DHT22;4446;50.876;4.736;2022-10-16T09:53:27;16.60;99.90
8820;DHT22;4446;50.876;4.736;2022-10-16T09:56:06;16.70;99.90
8820;DHT22;4446;50.876;4.736;2022-10-16T09:58:34;16.80;99.90
8820;DHT22;4446;50.876;4.736;2022-10-16T10:01:02;16.80;99.90
8820;DHT22;4446;50.876;4.736;2022-10-16T10:03:38;16.80;99.90
8820;DHT22;4446;50.876;4.736;2022-10-16T10:06:16;16.90;99.90
8820;DHT22;4446;50.876;4.736;2022-10-16T10:08:56;16.90;99.90
8820;DHT22;4446;50.876;4.736;2022-10-16T10:11:39;17.00;99.90
8820;DHT22;4446;50.876;4.736;2022-10-16T10:14:13;17.00;99.90
8820;DHT22;4446;50.876;4.736;2022-10-16T10:16:42;17.10;99.90
8820;DHT22;4446;50.876;4.736;2022-10-16T10:19:14;17.10;99.90
8820;DHT22;4446;50.876;4.736;2022-10-16T10:21:41;17.20;99.90
8820;DHT22;4446;50.876;4.736;2022-10-16T10:24:12;17.30;99.90
8820;DHT22;4446;50.876;4.736;2022-10-16T10:26:45;17.40;99.90
8820;DHT22;4446;50.876;4.736;2022-10-16T10:29:21;17.50;99.90
8820;DHT22;4446;50.876;4.736;2022-10-16T10:31:56;17.50;99.90
8820;DHT22;4446;50.876;4.736;2022-10-16T10:34:42;17.50;99.90
8820;DHT22;4446;50.876;4.736;2022-10-16T10:37:27;17.60;99.90
8820;DHT22;4446;50.876;4.736;2022-10-16T10:40:03;17.60;99.90
8820;DHT22;4446;50.876;4.736;2022-10-16T10:42:38;17.50;99.90
8820;DHT22;4446;50.876;4.736;2022-10-16T10:45:17;17.60;99.90
8820;DHT22;4446;50.876;4.736;2022-10-16T10:47:53;17.60;99.90
8820;DHT22;4446;50.876;4.736;2022-10-16T10:50:26;17.70;99.90
8820;DHT22;4446;50.876;4.736;2022-10-16T10:53:00;17.80;99.90
8820;DHT22;4446;50.876;4.736;2022-10-16T10:55:39;17.80;99.90
8820;DHT22;4446;50.876;4.736;2022-10-16T10:58:25;17.80;99.90
8820;DHT22;4446;50.876;4.736;2022-10-16T11:01:02;17.80;99.90
8820;DHT22;4446;50.876;4.736;2022-10-16T11:03:57;17.80;99.90
8820;DHT22;4446;50.876;4.736;2022-10-16T11:06:28;17.70;99.90
8820;DHT22;4446;50.876;4.736;2022-10-16T11:09:02;17.80;99.90
8820;DHT22;4446;50.876;4.736;2022-10-16T11:11:38;17.80;99.90
8820;DHT22;4446;50.876;4.736;2022-10-16T11:14:14;17.80;99.90
8820;DHT22;4446;50.876;4.736;2022-10-16T11:16:47;17.70;99.90
8820;DHT22;4446;50.876;4.736;2022-10-16T11:19:24;17.70;99.90
8820;DHT22;4446;50.876;4.736;2022-10-16T11:21:55;17.60;99.90
8820;DHT22;4446;50.876;4.736;2022-10-16T11:24:40;17.60;99.90
8820;DHT22;4446;50.876;4.736;2022-10-16T11:27:15;17.60;99.90
8820;DHT22;4446;50.876;4.736;2022-10-16T11:29:49;17.70;99.90
8820;DHT22;4446;50.876;4.736;2022-10-16T11:32:23;17.70;99.90
8820;DHT22;4446;50.876;4.736;2022-10-16T11:34:55;17.80;99.90
8820;DHT22;4446;50.876;4.736;2022-10-16T11:37:27;17.90;99.90
8820;DHT22;4446;50.876;4.736;2022-10-16T11:40:03;18.00;99.90
8820;DHT22;4446;50.876;4.736;2022-10-16T11:42:37;18.10;99.90
8820;DHT22;4446;50.876;4.736;2022-10-16T11:45:15;18.10;99.90
8820;DHT22;4446;50.876;4.736;2022-10-16T11:47:57;18.00;99.90
8820;DHT22;4446;50.876;4.736;2022-10-16T11:50:31;18.00;99.90
8820;DHT22;4446;50.876;4.736;2022-10-16T11:53:04;17.90;99.90
8820;DHT22;4446;50.876;4.736;2022-10-16T11:55:39;17.90;99.90
8820;DHT22;4446;50.876;4.736;2022-10-16T11:58:14;17.90;99.90
8820;DHT22;4446;50.876;4.736;2022-10-16T12:00:47;17.90;99.90
8820;DHT22;4446;50.876;4.736;2022-10-16T12:03:21;17.90;99.90
8820;DHT22;4446;50.876;4.736;2022-10-16T12:06:09;18.00;99.90
8820;DHT22;4446;50.876;4.736;2022-10-16T12:08:38;18.10;99.90
8820;DHT22;4446;50.876;4.736;2022-10-16T12:11:30;18.10;99.90
8820;DHT22;4446;50.876;4.736;2022-10-16T12:16:52;18.50;99.90
8820;DHT22;4446;50.876;4.736;2022-10-16T12:19:21;18.80;99.90
8820;DHT22;4446;50.876;4.736;2022-10-16T12:21:51;19.00;99.90
8820;DHT22;4446;50.876;4.736;2022-10-16T12:24:31;19.30;99.90
8820;DHT22;4446;50.876;4.736;2022-10-16T12:26:58;19.40;99.90
8820;DHT22;4446;50.876;4.736;2022-10-16T12:29:33;19.60;99.90
8820;DHT22;4446;50.876;4.736;2022-10-16T12:32:03;19.70;99.90
8820;DHT22;4446;50.876;4.736;2022-10-16T12:34:37;19.80;99.90
8820;DHT22;4446;50.876;4.736;2022-10-16T12:37:11;19.80;99.90
8820;DHT22;4446;50.876;4.736;2022-10-16T12:39:40;19.90;99.90
8820;DHT22;4446;50.876;4.736;2022-10-16T12:42:21;20.00;99.90
8820;DHT22;4446;50.876;4.736;2022-10-16T12:44:50;20.00;99.90
8820;DHT22;4446;50.876;4.736;2022-10-16T12:47:22;20.00;99.90
8820;DHT22;4446;50.876;4.736;2022-10-16T12:49:52;20.00;99.90
8820;DHT22;4446;50.876;4.736;2022-10-16T12:52:27;20.20;99.90
8820;DHT22;4446;50.876;4.736;2022-10-16T12:54:56;20.40;99.90
8820;DHT22;4446;50.876;4.736;2022-10-16T12:57:41;20.40;99.90
8820;DHT22;4446;50.876;4.736;2022-10-16T13:00:22;20.40;99.90
8820;DHT22;4446;50.876;4.736;2022-10-16T13:03:20;20.40;99.90
8820;DHT22;4446;50.876;4.736;2022-10-16T13:06:03;20.60;99.90
8820;DHT22;4446;50.876;4.736;2022-10-16T13:09:05;20.30;99.90
8820;DHT22;4446;50.876;4.736;2022-10-16T13:11:45;20.30;99.90
8820;DHT22;4446;50.876;4.736;2022-10-16T13:14:28;20.30;99.90
8820;DHT22;4446;50.876;4.736;2022-10-16T13:17:05;20.40;99.90
8820;DHT22;4446;50.876;4.736;2022-10-16T13:19:41;20.30;99.90
8820;DHT22;4446;50.876;4.736;2022-10-16T13:22:19;20.20;99.90
8820;DHT22;4446;50.876;4.736;2022-10-16T13:24:56;20.20;99.90
8820;DHT22;4446;50.876;4.736;2022-10-16T13:27:33;20.40;99.90
8820;DHT22;4446;50.876;4.736;2022-10-16T13:30:10;20.50;99.90
8820;DHT22;4446;50.876;4.736;2022-10-16T13:32:40;20.60;99.90
8820;DHT22;4446;50.876;4.736;2022-10-16T13:35:20;20.60;99.90
8820;DHT22;4446;50.876;4.736;2022-10-16T13:37:48;20.60;99.90
8820;DHT22;4446;50.876;4.736;2022-10-16T13:40:20;20.50;99.90
8820;DHT22;4446;50.876;4.736;2022-10-16T13:42:48;20.40;99.90
8820;DHT22;4446;50.876;4.736;2022-10-16T13:45:20;20.30;99.90
8820;DHT22;4446;50.876;4.736;2022-10-16T13:47:48;20.30;99.90
8820;DHT22;4446;50.876;4.736;2022-10-16T13:50:17;20.40;99.90
8820;DHT22;4446;50.876;4.736;2022-10-16T13:52:45;20.60;99.90
8820;DHT22;4446;50.876;4.736;2022-10-16T13:55:13;20.60;99.90
8820;DHT22;4446;50.876;4.736;2022-10-16T13:57:41;20.60;99.90
8820;DHT22;4446;50.876;4.736;2022-10-16T14:00:19;20.60;99.90
8820;DHT22;4446;50.876;4.736;2022-10-16T14:02:53;20.30;99.90
8820;DHT22;4446;50.876;4.736;2022-10-16T14:05:24;20.20;99.90
8820;DHT22;4446;50.876;4.736;2022-10-16T14:07:51;20.10;99.90
8820;DHT22;4446;50.876;4.736;2022-10-16T14:10:23;19.90;99.90
8820;DHT22;4446;50.876;4.736;2022-10-16T14:12:58;19.70;99.90
8820;DHT22;4446;50.876;4.736;2022-10-16T14:15:26;19.80;99.90
8820;DHT22;4446;50.876;4.736;2022-10-16T14:17:55;19.80;99.90
8820;DHT22;4446;50.876;4.736;2022-10-16T14:20:26;19.80;99.90
8820;DHT22;4446;50.876;4.736;2022-10-16T14:23:01;19.70;99.90
8820;DHT22;4446;50.876;4.736;2022-10-16T14:25:29;19.70;99.90
8820;DHT22;4446;50.876;4.736;2022-10-16T14:27:58;19.60;99.90
8820;DHT22;4446;50.876;4.736;2022-10-16T14:30:26;19.60;99.90
8820;DHT22;4446;50.876;4.736;2022-10-16T14:32:57;19.60;99.90
8820;DHT22;4446;50.876;4.736;2022-10-16T14:35:32;19.50;99.90
8820;DHT22;4446;50.876;4.736;2022-10-16T14:38:00;19.50;99.90
8820;DHT22;4446;50.876;4.736;2022-10-16T14:40:29;19.50;99.90
8820;DHT22;4446;50.876;4.736;2022-10-16T14:42:57;19.50;99.90
8820;DHT22;4446;50.876;4.736;2022-10-16T14:45:27;19.50;99.90
8820;DHT22;4446;50.876;4.736;2022-10-16T14:47:57;19.60;99.90
8820;DHT22;4446;50.876;4.736;2022-10-16T14:50:24;19.70;99.90
8820;DHT22;4446;50.876;4.736;2022-10-16T14:52:51;19.70;99.90
8820;DHT22;4446;50.876;4.736;2022-10-16T14:55:19;19.80;99.90
8820;DHT22;4446;50.876;4.736;2022-10-16T14:57:47;19.80;99.90
8820;DHT22;4446;50.876;4.736;2022-10-16T15:00:18;19.90;99.90
8820;DHT22;4446;50.876;4.736;2022-10-16T15:02:47;19.80;99.90
8820;DHT22;4446;50.876;4.736;2022-10-16T15:05:19;19.80;99.90
8820;DHT22;4446;50.876;4.736;2022-10-16T15:07:46;19.80;99.90
8820;DHT22;4446;50.876;4.736;2022-10-16T15:10:15;19.60;99.90
8820;DHT22;4446;50.876;4.736;2022-10-16T15:12:42;19.50;99.90
8820;DHT22;4446;50.876;4.736;2022-10-16T15:15:25;19.40;99.90
8820;DHT22;4446;50.876;4.736;2022-10-16T15:17:56;19.30;99.90
8820;DHT22;4446;50.876;4.736;2022-10-16T15:20:28;19.10;99.90
8820;DHT22;4446;50.876;4.736;2022-10-16T15:22:56;19.10;99.90
8820;DHT22;4446;50.876;4.736;2022-10-16T15:25:35;19.00;99.90
8820;DHT22;4446;50.876;4.736;2022-10-16T15:28:03;18.90;99.90
8820;DHT22;4446;50.876;4.736;2022-10-16T15:30:30;18.90;99.90
8820;DHT22;4446;50.876;4.736;2022-10-16T15:32:58;18.80;99.90
8820;DHT22;4446;50.876;4.736;2022-10-16T15:35:27;18.80;99.90
8820;DHT22;4446;50.876;4.736;2022-10-16T15:37:54;18.70;99.90
8820;DHT22;4446;50.876;4.736;2022-10-16T15:40:22;18.60;99.90
8820;DHT22;4446;50.876;4.736;2022-10-16T15:42:50;18.40;99.90
8820;DHT22;4446;50.876;4.736;2022-10-16T15:45:17;18.30;99.90
8820;DHT22;4446;50.876;4.736;2022-10-16T15:47:45;18.20;99.90
8820;DHT22;4446;50.876;4.736;2022-10-16T15:50:14;18.00;99.90
8820;DHT22;4446;50.876;4.736;2022-10-16T15:52:42;17.90;99.90
8820;DHT22;4446;50.876;4.736;2022-10-16T15:55:11;17.70;99.90
8820;DHT22;4446;50.876;4.736;2022-10-16T15:57:39;17.60;99.90
8820;DHT22;4446;50.876;4.736;2022-10-16T16:00:10;17.50;99.90
8820;DHT22;4446;50.876;4.736;2022-10-16T16:02:37;17.30;99.90
8820;DHT22;4446;50.876;4.736;2022-10-16T16:05:07;17.20;99.90
8820;DHT22;4446;50.876;4.736;2022-10-16T16:07:35;17.10;99.90
8820;DHT22;4446;50.876;4.736;2022-10-16T16:10:06;17.00;99.90
8820;DHT22;4446;50.876;4.736;2022-10-16T16:12:34;16.90;99.90
8820;DHT22;4446;50.876;4.736;2022-10-16T16:15:01;16.80;99.90
8820;DHT22;4446;50.876;4.736;2022-10-16T16:17:28;16.70;99.90
8820;DHT22;4446;50.876;4.736;2022-10-16T16:19:57;16.60;99.90
8820;DHT22;4446;50.876;4.736;2022-10-16T16:22:25;16.60;99.90
8820;DHT22;4446;50.876;4.736;2022-10-16T16:24:52;16.50;99.90
8820;DHT22;4446;50.876;4.736;2022-10-16T16:27:20;16.40;99.90
8820;DHT22;4446;50.876;4.736;2022-10-16T16:29:50;16.30;99.90
8820;DHT22;4446;50.876;4.736;2022-10-16T16:32:17;16.20;99.90